Terminal Aerodrome Forecast
Issued by NWS

Home | Current Version | Previous Version | Text Only | Print | Product List | Glossary On
Versions: 1 2 3 4 5 6 7 8 9 10 11 12 13 14 15 16 17 18
000
FTUS44 KLZK 201700
TAFPBF
TAF
KPBF 201733Z 2018/2118 15005KT P6SM SCT040
     FM202000 17007KT P6SM BKN045
     FM210100 19005KT P6SM FEW040 SCT250
     FM211000 23005KT P6SM VCSH SCT050 SCT100 BKN250
      TEMPO 2110/2113 3SM BR SCT005
     FM211500 27007KT P6SM VCTS SCT050CB OVC150=

USA.gov is the U.S. government's official web portal to all federal, state and local government web resources and services.